sensor_id;sensor_type;location;lat;lon;timestamp;temperature;humidity
25963;DHT22;13760;52.588;13.406;2024-03-23T00:55:42;7.70;99.90
25963;DHT22;13760;52.588;13.406;2024-03-23T00:58:08;7.70;99.90
25963;DHT22;13760;52.588;13.406;2024-03-23T01:00:34;7.70;99.90
25963;DHT22;13760;52.588;13.406;2024-03-23T01:02:59;7.70;99.90
25963;DHT22;13760;52.588;13.406;2024-03-23T01:05:25;7.60;99.90
25963;DHT22;13760;52.588;13.406;2024-03-23T01:07:50;7.70;99.90
25963;DHT22;13760;52.588;13.406;2024-03-23T01:10:16;7.60;99.90
25963;DHT22;13760;52.588;13.406;2024-03-23T01:12:42;7.70;99.90
25963;DHT22;13760;52.588;13.406;2024-03-23T01:15:07;7.60;99.90
25963;DHT22;13760;52.588;13.406;2024-03-23T01:17:33;7.70;99.90
25963;DHT22;13760;52.588;13.406;2024-03-23T01:19:59;7.60;99.90
25963;DHT22;13760;52.588;13.406;2024-03-23T01:22:24;7.60;99.90
25963;DHT22;13760;52.588;13.406;2024-03-23T01:24:50;7.60;99.90
25963;DHT22;13760;52.588;13.406;2024-03-23T01:27:15;7.60;99.90
25963;DHT22;13760;52.588;13.406;2024-03-23T01:29:41;7.60;99.90
25963;DHT22;13760;52.588;13.406;2024-03-23T01:32:06;7.60;99.90
25963;DHT22;13760;52.588;13.406;2024-03-23T01:34:32;7.60;99.90
25963;DHT22;13760;52.588;13.406;2024-03-23T01:36:58;7.50;99.90
25963;DHT22;13760;52.588;13.406;2024-03-23T01:39:24;7.50;99.90
25963;DHT22;13760;52.588;13.406;2024-03-23T01:41:49;7.50;99.90
25963;DHT22;13760;52.588;13.406;2024-03-23T01:44:15;7.50;99.90
25963;DHT22;13760;52.588;13.406;2024-03-23T01:46:41;7.50;99.90
25963;DHT22;13760;52.588;13.406;2024-03-23T01:49:08;7.60;99.90
25963;DHT22;13760;52.588;13.406;2024-03-23T01:51:35;7.60;99.90
25963;DHT22;13760;52.588;13.406;2024-03-23T01:54:04;7.50;99.90
25963;DHT22;13760;52.588;13.406;2024-03-23T01:56:35;7.60;99.90
25963;DHT22;13760;52.588;13.406;2024-03-23T01:59:04;7.50;99.90
25963;DHT22;13760;52.588;13.406;2024-03-23T02:01:30;7.50;99.90
25963;DHT22;13760;52.588;13.406;2024-03-23T02:03:57;7.60;99.90
25963;DHT22;13760;52.588;13.406;2024-03-23T02:06:26;7.50;99.90
25963;DHT22;13760;52.588;13.406;2024-03-23T02:08:53;7.50;99.90
25963;DHT22;13760;52.588;13.406;2024-03-23T02:11:18;7.50;99.90
25963;DHT22;13760;52.588;13.406;2024-03-23T02:13:44;7.50;99.90
25963;DHT22;13760;52.588;13.406;2024-03-23T02:16:10;7.40;99.90
25963;DHT22;13760;52.588;13.406;2024-03-23T02:18:35;7.50;99.90
25963;DHT22;13760;52.588;13.406;2024-03-23T02:21:01;7.50;99.90
25963;DHT22;13760;52.588;13.406;2024-03-23T02:23:26;7.50;99.90
25963;DHT22;13760;52.588;13.406;2024-03-23T02:25:52;7.50;99.90
25963;DHT22;13760;52.588;13.406;2024-03-23T02:28:20;7.50;99.90
25963;DHT22;13760;52.588;13.406;2024-03-23T02:30:48;7.50;99.90
25963;DHT22;13760;52.588;13.406;2024-03-23T02:33:14;7.50;99.90
25963;DHT22;13760;52.588;13.406;2024-03-23T02:35:39;7.50;99.90
25963;DHT22;13760;52.588;13.406;2024-03-23T02:38:05;7.50;99.90
25963;DHT22;13760;52.588;13.406;2024-03-23T02:40:30;7.50;99.90
25963;DHT22;13760;52.588;13.406;2024-03-23T02:42:56;7.50;99.90
25963;DHT22;13760;52.588;13.406;2024-03-23T02:45:21;7.50;99.90
25963;DHT22;13760;52.588;13.406;2024-03-23T02:47:47;7.50;99.90
25963;DHT22;13760;52.588;13.406;2024-03-23T02:50:20;7.40;99.90
25963;DHT22;13760;52.588;13.406;2024-03-23T02:52:46;7.50;99.90
25963;DHT22;13760;52.588;13.406;2024-03-23T02:55:12;7.40;99.90
25963;DHT22;13760;52.588;13.406;2024-03-23T02:57:37;7.40;99.90
25963;DHT22;13760;52.588;13.406;2024-03-23T03:00:03;7.40;99.90
25963;DHT22;13760;52.588;13.406;2024-03-23T03:02:30;7.40;99.90
25963;DHT22;13760;52.588;13.406;2024-03-23T03:04:55;7.40;99.90
25963;DHT22;13760;52.588;13.406;2024-03-23T03:07:21;7.40;99.90
25963;DHT22;13760;52.588;13.406;2024-03-23T03:09:47;7.40;99.90
25963;DHT22;13760;52.588;13.406;2024-03-23T03:12:12;7.40;99.90
25963;DHT22;13760;52.588;13.406;2024-03-23T03:14:38;7.40;99.90
25963;DHT22;13760;52.588;13.406;2024-03-23T03:17:03;7.40;99.90
25963;DHT22;13760;52.588;13.406;2024-03-23T03:19:29;7.50;99.90
25963;DHT22;13760;52.588;13.406;2024-03-23T03:21:55;7.50;99.90
25963;DHT22;13760;52.588;13.406;2024-03-23T03:24:21;7.40;99.90
25963;DHT22;13760;52.588;13.406;2024-03-23T03:26:46;7.40;99.90
25963;DHT22;13760;52.588;13.406;2024-03-23T03:29:12;7.40;99.90
25963;DHT22;13760;52.588;13.406;2024-03-23T03:31:39;7.40;99.90
25963;DHT22;13760;52.588;13.406;2024-03-23T03:34:04;7.30;99.90
25963;DHT22;13760;52.588;13.406;2024-03-23T03:36:30;7.30;99.90
25963;DHT22;13760;52.588;13.406;2024-03-23T03:38:55;7.40;99.90
25963;DHT22;13760;52.588;13.406;2024-03-23T03:41:21;7.30;99.90
25963;DHT22;13760;52.588;13.406;2024-03-23T03:43:46;7.30;99.90
25963;DHT22;13760;52.588;13.406;2024-03-23T03:46:12;7.30;99.90
25963;DHT22;13760;52.588;13.406;2024-03-23T03:48:37;7.20;99.90
25963;DHT22;13760;52.588;13.406;2024-03-23T03:51:03;7.20;99.90
25963;DHT22;13760;52.588;13.406;2024-03-23T03:53:29;7.20;99.90
25963;DHT22;13760;52.588;13.406;2024-03-23T03:55:56;7.20;99.90
25963;DHT22;13760;52.588;13.406;2024-03-23T03:58:21;7.20;99.90
25963;DHT22;13760;52.588;13.406;2024-03-23T04:00:47;7.10;99.90
25963;DHT22;13760;52.588;13.406;2024-03-23T04:03:12;7.10;99.90
25963;DHT22;13760;52.588;13.406;2024-03-23T04:05:38;7.10;99.90
25963;DHT22;13760;52.588;13.406;2024-03-23T04:08:04;7.10;99.90
25963;DHT22;13760;52.588;13.406;2024-03-23T04:10:30;7.10;99.90
25963;DHT22;13760;52.588;13.406;2024-03-23T04:12:55;7.00;99.90
25963;DHT22;13760;52.588;13.406;2024-03-23T04:15:21;7.00;99.90
25963;DHT22;13760;52.588;13.406;2024-03-23T04:17:47;6.90;99.90
25963;DHT22;13760;52.588;13.406;2024-03-23T04:20:13;6.90;99.90
25963;DHT22;13760;52.588;13.406;2024-03-23T04:22:44;6.90;99.90
25963;DHT22;13760;52.588;13.406;2024-03-23T04:25:10;6.90;99.90
25963;DHT22;13760;52.588;13.406;2024-03-23T04:27:39;6.80;99.90
25963;DHT22;13760;52.588;13.406;2024-03-23T04:30:06;6.80;99.90
25963;DHT22;13760;52.588;13.406;2024-03-23T04:32:37;6.80;99.90
25963;DHT22;13760;52.588;13.406;2024-03-23T04:35:02;6.70;99.90
25963;DHT22;13760;52.588;13.406;2024-03-23T04:37:34;6.70;99.90
25963;DHT22;13760;52.588;13.406;2024-03-23T04:40:00;6.70;99.90
25963;DHT22;13760;52.588;13.406;2024-03-23T04:42:27;6.60;99.90
25963;DHT22;13760;52.588;13.406;2024-03-23T04:44:53;6.70;99.90
25963;DHT22;13760;52.588;13.406;2024-03-23T04:47:18;6.70;99.90
25963;DHT22;13760;52.588;13.406;2024-03-23T04:49:44;6.70;99.90
25963;DHT22;13760;52.588;13.406;2024-03-23T04:52:09;6.60;99.90
25963;DHT22;13760;52.588;13.406;2024-03-23T04:54:35;6.60;99.90
25963;DHT22;13760;52.588;13.406;2024-03-23T04:57:00;6.60;99.90
25963;DHT22;13760;52.588;13.406;2024-03-23T04:59:26;6.60;99.90
25963;DHT22;13760;52.588;13.406;2024-03-23T05:01:51;6.60;99.90
25963;DHT22;13760;52.588;13.406;2024-03-23T05:04:17;6.60;99.90
25963;DHT22;13760;52.588;13.406;2024-03-23T05:06:42;6.50;99.90
25963;DHT22;13760;52.588;13.406;2024-03-23T05:09:08;6.50;99.90
25963;DHT22;13760;52.588;13.406;2024-03-23T05:11:37;6.50;99.90
25963;DHT22;13760;52.588;13.406;2024-03-23T05:14:03;6.50;99.90
25963;DHT22;13760;52.588;13.406;2024-03-23T05:16:29;6.40;99.90
25963;DHT22;13760;52.588;13.406;2024-03-23T05:18:54;6.50;99.90
25963;DHT22;13760;52.588;13.406;2024-03-23T05:21:20;6.40;99.90
25963;DHT22;13760;52.588;13.406;2024-03-23T05:23:46;6.40;99.90
25963;DHT22;13760;52.588;13.406;2024-03-23T05:26:11;6.40;99.90
25963;DHT22;13760;52.588;13.406;2024-03-23T05:28:37;6.40;99.90
25963;DHT22;13760;52.588;13.406;2024-03-23T05:31:02;6.40;99.90
25963;DHT22;13760;52.588;13.406;2024-03-23T05:33:28;6.40;99.90
25963;DHT22;13760;52.588;13.406;2024-03-23T05:35:58;6.40;99.90
25963;DHT22;13760;52.588;13.406;2024-03-23T05:38:23;6.40;99.90
25963;DHT22;13760;52.588;13.406;2024-03-23T05:40:59;6.40;99.90
25963;DHT22;13760;52.588;13.406;2024-03-23T05:43:25;6.40;99.90
25963;DHT22;13760;52.588;13.406;2024-03-23T05:45:58;6.40;99.90
25963;DHT22;13760;52.588;13.406;2024-03-23T05:48:27;6.40;99.90
25963;DHT22;13760;52.588;13.406;2024-03-23T05:50:53;6.40;99.90
25963;DHT22;13760;52.588;13.406;2024-03-23T05:53:19;6.40;99.90
25963;DHT22;13760;52.588;13.406;2024-03-23T05:55:48;6.40;99.90
25963;DHT22;13760;52.588;13.406;2024-03-23T05:58:17;6.40;99.90
25963;DHT22;13760;52.588;13.406;2024-03-23T06:00:44;6.40;99.90
25963;DHT22;13760;52.588;13.406;2024-03-23T06:03:10;6.40;99.90
25963;DHT22;13760;52.588;13.406;2024-03-23T06:05:36;6.50;99.90
25963;DHT22;13760;52.588;13.406;2024-03-23T06:08:02;6.40;99.90
25963;DHT22;13760;52.588;13.406;2024-03-23T06:10:28;6.40;99.90
25963;DHT22;13760;52.588;13.406;2024-03-23T06:12:53;6.40;99.90
25963;DHT22;13760;52.588;13.406;2024-03-23T06:15:19;6.50;99.90
25963;DHT22;13760;52.588;13.406;2024-03-23T06:17:45;6.50;99.90
25963;DHT22;13760;52.588;13.406;2024-03-23T06:20:10;6.50;99.90
25963;DHT22;13760;52.588;13.406;2024-03-23T06:22:36;6.50;99.90
25963;DHT22;13760;52.588;13.406;2024-03-23T06:25:02;6.50;99.90
25963;DHT22;13760;52.588;13.406;2024-03-23T06:27:28;6.60;99.90
25963;DHT22;13760;52.588;13.406;2024-03-23T06:29:53;6.60;99.90
25963;DHT22;13760;52.588;13.406;2024-03-23T06:32:20;6.60;99.90
25963;DHT22;13760;52.588;13.406;2024-03-23T06:34:45;6.50;99.90
25963;DHT22;13760;52.588;13.406;2024-03-23T06:37:11;6.60;99.90
25963;DHT22;13760;52.588;13.406;2024-03-23T06:39:37;6.60;99.90
25963;DHT22;13760;52.588;13.406;2024-03-23T06:42:03;6.60;99.90
25963;DHT22;13760;52.588;13.406;2024-03-23T06:44:29;6.60;99.90
25963;DHT22;13760;52.588;13.406;2024-03-23T06:46:55;6.60;99.90
25963;DHT22;13760;52.588;13.406;2024-03-23T06:49:20;6.60;99.90
25963;DHT22;13760;52.588;13.406;2024-03-23T06:51:46;6.60;99.90
25963;DHT22;13760;52.588;13.406;2024-03-23T06:54:12;6.70;99.90
25963;DHT22;13760;52.588;13.406;2024-03-23T06:56:37;6.70;99.90
25963;DHT22;13760;52.588;13.406;2024-03-23T06:59:03;6.70;99.90
25963;DHT22;13760;52.588;13.406;2024-03-23T07:01:29;6.70;99.90
25963;DHT22;13760;52.588;13.406;2024-03-23T07:03:55;6.70;99.90
25963;DHT22;13760;52.588;13.406;2024-03-23T07:06:20;6.70;99.90
25963;DHT22;13760;52.588;13.406;2024-03-23T07:08:46;6.70;99.90
25963;DHT22;13760;52.588;13.406;2024-03-23T07:11:12;6.70;99.90
25963;DHT22;13760;52.588;13.406;2024-03-23T07:13:37;6.70;99.90
25963;DHT22;13760;52.588;13.406;2024-03-23T07:16:04;6.70;99.90
25963;DHT22;13760;52.588;13.406;2024-03-23T07:18:30;6.70;99.90
25963;DHT22;13760;52.588;13.406;2024-03-23T07:20:56;6.60;99.90
25963;DHT22;13760;52.588;13.406;2024-03-23T07:23:24;6.70;99.90
25963;DHT22;13760;52.588;13.406;2024-03-23T07:26:02;6.70;99.90
25963;DHT22;13760;52.588;13.406;2024-03-23T07:28:29;6.70;99.90
25963;DHT22;13760;52.588;13.406;2024-03-23T07:31:15;6.80;99.90
25963;DHT22;13760;52.588;13.406;2024-03-23T07:33:48;6.80;99.90
25963;DHT22;13760;52.588;13.406;2024-03-23T07:36:14;6.80;99.90
25963;DHT22;13760;52.588;13.406;2024-03-23T07:38:43;6.80;99.90
25963;DHT22;13760;52.588;13.406;2024-03-23T07:41:18;6.90;99.90
25963;DHT22;13760;52.588;13.406;2024-03-23T07:43:44;6.90;99.90
25963;DHT22;13760;52.588;13.406;2024-03-23T07:46:10;6.90;99.90
25963;DHT22;13760;52.588;13.406;2024-03-23T07:48:35;6.90;99.90
25963;DHT22;13760;52.588;13.406;2024-03-23T07:51:02;6.90;99.90
25963;DHT22;13760;52.588;13.406;2024-03-23T07:53:35;6.80;99.90
25963;DHT22;13760;52.588;13.406;2024-03-23T07:56:10;6.70;99.90
25963;DHT22;13760;52.588;13.406;2024-03-23T07:58:36;6.80;99.90
25963;DHT22;13760;52.588;13.406;2024-03-23T08:01:06;6.70;99.90
25963;DHT22;13760;52.588;13.406;2024-03-23T08:03:36;6.70;99.90
25963;DHT22;13760;52.588;13.406;2024-03-23T08:06:12;6.60;99.90
25963;DHT22;13760;52.588;13.406;2024-03-23T08:08:41;6.50;99.90
25963;DHT22;13760;52.588;13.406;2024-03-23T08:11:13;6.60;99.90
25963;DHT22;13760;52.588;13.406;2024-03-23T08:13:41;6.50;99.90
25963;DHT22;13760;52.588;13.406;2024-03-23T08:16:07;6.50;99.90
25963;DHT22;13760;52.588;13.406;2024-03-23T08:18:34;6.50;99.90
25963;DHT22;13760;52.588;13.406;2024-03-23T08:21:01;6.40;99.90
25963;DHT22;13760;52.588;13.406;2024-03-23T08:23:27;6.30;99.90
25963;DHT22;13760;52.588;13.406;2024-03-23T08:26:00;6.20;99.90
25963;DHT22;13760;52.588;13.406;2024-03-23T08:28:27;6.20;99.90
25963;DHT22;13760;52.588;13.406;2024-03-23T08:30:53;6.20;99.90
25963;DHT22;13760;52.588;13.406;2024-03-23T08:33:19;6.20;99.90
25963;DHT22;13760;52.588;13.406;2024-03-23T08:35:54;6.20;99.90
25963;DHT22;13760;52.588;13.406;2024-03-23T08:38:20;6.20;99.90
25963;DHT22;13760;52.588;13.406;2024-03-23T08:41:04;6.20;99.90
25963;DHT22;13760;52.588;13.406;2024-03-23T08:43:32;6.10;99.90
25963;DHT22;13760;52.588;13.406;2024-03-23T08:46:11;6.00;99.90
25963;DHT22;13760;52.588;13.406;2024-03-23T08:48:42;5.90;99.90
25963;DHT22;13760;52.588;13.406;2024-03-23T08:51:14;5.90;99.90
25963;DHT22;13760;52.588;13.406;2024-03-23T08:53:40;5.80;99.90
25963;DHT22;13760;52.588;13.406;2024-03-23T08:56:08;5.80;99.90
25963;DHT22;13760;52.588;13.406;2024-03-23T08:58:34;5.70;99.90
25963;DHT22;13760;52.588;13.406;2024-03-23T09:03:30;5.70;99.90
25963;DHT22;13760;52.588;13.406;2024-03-23T09:05:56;5.70;99.90
25963;DHT22;13760;52.588;13.406;2024-03-23T09:08:23;5.60;99.90
25963;DHT22;13760;52.588;13.406;2024-03-23T09:10:49;5.50;99.90
25963;DHT22;13760;52.588;13.406;2024-03-23T09:13:14;5.40;99.90
25963;DHT22;13760;52.588;13.406;2024-03-23T09:15:49;5.40;99.90
25963;DHT22;13760;52.588;13.406;2024-03-23T09:18:15;5.40;99.90
25963;DHT22;13760;52.588;13.406;2024-03-23T09:20:41;5.50;99.90
25963;DHT22;13760;52.588;13.406;2024-03-23T09:23:06;5.30;99.90
25963;DHT22;13760;52.588;13.406;2024-03-23T09:25:35;5.20;99.90
25963;DHT22;13760;52.588;13.406;2024-03-23T09:28:01;5.10;99.90
25963;DHT22;13760;52.588;13.406;2024-03-23T09:30:27;5.10;99.90
25963;DHT22;13760;52.588;13.406;2024-03-23T09:32:53;5.10;99.90
25963;DHT22;13760;52.588;13.406;2024-03-23T09:35:18;5.10;99.90
25963;DHT22;13760;52.588;13.406;2024-03-23T09:37:45;5.10;99.90
25963;DHT22;13760;52.588;13.406;2024-03-23T09:40:11;5.10;99.90
25963;DHT22;13760;52.588;13.406;2024-03-23T09:42:37;5.20;99.90
25963;DHT22;13760;52.588;13.406;2024-03-23T09:45:26;5.20;99.90
25963;DHT22;13760;52.588;13.406;2024-03-23T09:48:04;5.20;99.90
25963;DHT22;13760;52.588;13.406;2024-03-23T09:50:32;5.10;99.90
25963;DHT22;13760;52.588;13.406;2024-03-23T09:52:57;5.10;99.90
25963;DHT22;13760;52.588;13.406;2024-03-23T09:55:23;5.20;99.90
25963;DHT22;13760;52.588;13.406;2024-03-23T09:57:50;5.20;99.90
25963;DHT22;13760;52.588;13.406;2024-03-23T10:00:16;5.10;99.90
25963;DHT22;13760;52.588;13.406;2024-03-23T10:02:42;5.10;99.90
25963;DHT22;13760;52.588;13.406;2024-03-23T10:05:21;5.00;99.90
25963;DHT22;13760;52.588;13.406;2024-03-23T10:07:49;4.90;99.90
25963;DHT22;13760;52.588;13.406;2024-03-23T10:10:16;4.80;99.90
25963;DHT22;13760;52.588;13.406;2024-03-23T10:12:46;4.70;99.90
25963;DHT22;13760;52.588;13.406;2024-03-23T10:15:24;4.70;99.90
25963;DHT22;13760;52.588;13.406;2024-03-23T10:17:50;4.70;99.90
25963;DHT22;13760;52.588;13.406;2024-03-23T10:20:23;4.70;99.90
25963;DHT22;13760;52.588;13.406;2024-03-23T10:22:51;4.80;99.90
25963;DHT22;13760;52.588;13.406;2024-03-23T10:25:17;4.80;99.90
25963;DHT22;13760;52.588;13.406;2024-03-23T10:27:43;4.80;99.90
25963;DHT22;13760;52.588;13.406;2024-03-23T10:30:11;4.90;99.90
25963;DHT22;13760;52.588;13.406;2024-03-23T10:32:37;4.90;99.90
25963;DHT22;13760;52.588;13.406;2024-03-23T10:35:16;4.90;99.90
25963;DHT22;13760;52.588;13.406;2024-03-23T10:37:44;5.00;99.90
25963;DHT22;13760;52.588;13.406;2024-03-23T10:40:11;5.00;99.90
25963;DHT22;13760;52.588;13.406;2024-03-23T10:42:38;5.10;99.90
25963;DHT22;13760;52.588;13.406;2024-03-23T10:45:07;5.20;99.90
25963;DHT22;13760;52.588;13.406;2024-03-23T10:47:36;5.10;99.90
25963;DHT22;13760;52.588;13.406;2024-03-23T10:50:06;5.20;99.90
25963;DHT22;13760;52.588;13.406;2024-03-23T10:52:35;5.20;99.90
25963;DHT22;13760;52.588;13.406;2024-03-23T10:55:04;5.20;99.90
25963;DHT22;13760;52.588;13.406;2024-03-23T10:57:34;5.20;99.90
25963;DHT22;13760;52.588;13.406;2024-03-23T11:00:02;5.20;99.90
25963;DHT22;13760;52.588;13.406;2024-03-23T11:02:28;5.20;99.90
25963;DHT22;13760;52.588;13.406;2024-03-23T11:04:55;5.20;99.90
25963;DHT22;13760;52.588;13.406;2024-03-23T11:09:50;5.30;99.90
25963;DHT22;13760;52.588;13.406;2024-03-23T11:15:01;5.40;99.90
25963;DHT22;13760;52.588;13.406;2024-03-23T11:17:39;5.40;99.90
25963;DHT22;13760;52.588;13.406;2024-03-23T11:20:31;5.50;99.90
25963;DHT22;13760;52.588;13.406;2024-03-23T11:22:57;5.50;99.90
25963;DHT22;13760;52.588;13.406;2024-03-23T11:25:24;5.60;99.90
25963;DHT22;13760;52.588;13.406;2024-03-23T11:27:54;5.70;99.90
25963;DHT22;13760;52.588;13.406;2024-03-23T11:30:29;5.70;99.90
25963;DHT22;13760;52.588;13.406;2024-03-23T11:32:56;5.70;99.90
25963;DHT22;13760;52.588;13.406;2024-03-23T11:35:29;5.80;99.90
25963;DHT22;13760;52.588;13.406;2024-03-23T11:38:04;5.80;99.90
25963;DHT22;13760;52.588;13.406;2024-03-23T11:40:29;5.90;99.90
25963;DHT22;13760;52.588;13.406;2024-03-23T11:43:00;5.90;99.90
25963;DHT22;13760;52.588;13.406;2024-03-23T11:45:26;5.90;99.90
25963;DHT22;13760;52.588;13.406;2024-03-23T11:48:16;6.00;99.90
25963;DHT22;13760;52.588;13.406;2024-03-23T11:50:46;6.10;99.90
25963;DHT22;13760;52.588;13.406;2024-03-23T11:55:51;6.30;99.90
25963;DHT22;13760;52.588;13.406;2024-03-23T11:58:18;6.40;99.90
25963;DHT22;13760;52.588;13.406;2024-03-23T12:00:59;6.40;99.90
25963;DHT22;13760;52.588;13.406;2024-03-23T12:03:26;6.40;99.90
25963;DHT22;13760;52.588;13.406;2024-03-23T12:06:04;6.40;99.90
25963;DHT22;13760;52.588;13.406;2024-03-23T12:08:32;6.40;99.90
25963;DHT22;13760;52.588;13.406;2024-03-23T12:11:09;6.50;99.90
25963;DHT22;13760;52.588;13.406;2024-03-23T12:13:36;6.40;99.90
25963;DHT22;13760;52.588;13.406;2024-03-23T12:16:12;6.50;99.90
25963;DHT22;13760;52.588;13.406;2024-03-23T12:18:41;6.40;99.90
25963;DHT22;13760;52.588;13.406;2024-03-23T12:21:11;6.40;99.90
25963;DHT22;13760;52.588;13.406;2024-03-23T12:23:48;6.30;99.90
25963;DHT22;13760;52.588;13.406;2024-03-23T12:26:15;6.30;99.90
25963;DHT22;13760;52.588;13.406;2024-03-23T12:28:43;6.30;99.90
25963;DHT22;13760;52.588;13.406;2024-03-23T12:31:10;6.30;99.90
25963;DHT22;13760;52.588;13.406;2024-03-23T12:33:42;6.20;99.90
25963;DHT22;13760;52.588;13.406;2024-03-23T12:36:13;6.30;99.90
25963;DHT22;13760;52.588;13.406;2024-03-23T12:38:40;6.40;99.90
25963;DHT22;13760;52.588;13.406;2024-03-23T12:41:05;6.50;99.90
25963;DHT22;13760;52.588;13.406;2024-03-23T12:43:31;6.60;99.90
25963;DHT22;13760;52.588;13.406;2024-03-23T12:45:57;6.70;99.90
25963;DHT22;13760;52.588;13.406;2024-03-23T12:48:22;6.70;99.90
25963;DHT22;13760;52.588;13.406;2024-03-23T12:50:48;6.70;99.90
25963;DHT22;13760;52.588;13.406;2024-03-23T12:53:14;6.80;99.90
25963;DHT22;13760;52.588;13.406;2024-03-23T12:55:40;6.90;99.90
25963;DHT22;13760;52.588;13.406;2024-03-23T12:58:06;6.90;99.90
25963;DHT22;13760;52.588;13.406;2024-03-23T13:00:36;7.00;99.90
25963;DHT22;13760;52.588;13.406;2024-03-23T13:03:02;7.00;99.90
25963;DHT22;13760;52.588;13.406;2024-03-23T13:05:28;7.00;99.90
25963;DHT22;13760;52.588;13.406;2024-03-23T13:07:53;7.10;99.90
25963;DHT22;13760;52.588;13.406;2024-03-23T13:10:19;7.00;99.90
25963;DHT22;13760;52.588;13.406;2024-03-23T13:12:44;7.10;99.90
25963;DHT22;13760;52.588;13.406;2024-03-23T13:15:10;7.20;99.90
25963;DHT22;13760;52.588;13.406;2024-03-23T13:17:35;7.30;99.90
25963;DHT22;13760;52.588;13.406;2024-03-23T13:20:02;7.30;99.90
25963;DHT22;13760;52.588;13.406;2024-03-23T13:22:29;7.20;99.90
25963;DHT22;13760;52.588;13.406;2024-03-23T13:24:55;7.20;99.90
25963;DHT22;13760;52.588;13.406;2024-03-23T13:27:21;7.30;99.90
25963;DHT22;13760;52.588;13.406;2024-03-23T13:29:46;7.30;99.90
25963;DHT22;13760;52.588;13.406;2024-03-23T13:32:12;7.40;99.90
25963;DHT22;13760;52.588;13.406;2024-03-23T13:34:38;7.50;99.90
25963;DHT22;13760;52.588;13.406;2024-03-23T13:37:03;7.60;99.90
25963;DHT22;13760;52.588;13.406;2024-03-23T13:39:30;7.90;99.90
25963;DHT22;13760;52.588;13.406;2024-03-23T13:41:56;7.90;99.90
25963;DHT22;13760;52.588;13.406;2024-03-23T13:44:21;8.10;99.90
25963;DHT22;13760;52.588;13.406;2024-03-23T13:46:47;8.00;99.90
25963;DHT22;13760;52.588;13.406;2024-03-23T13:49:27;8.00;99.90
25963;DHT22;13760;52.588;13.406;2024-03-23T13:51:54;7.90;99.90
25963;DHT22;13760;52.588;13.406;2024-03-23T13:54:20;7.80;99.90
25963;DHT22;13760;52.588;13.406;2024-03-23T13:56:48;7.70;99.90
25963;DHT22;13760;52.588;13.406;2024-03-23T13:59:14;7.70;99.90
25963;DHT22;13760;52.588;13.406;2024-03-23T14:01:41;7.80;99.90
25963;DHT22;13760;52.588;13.406;2024-03-23T14:04:07;7.80;99.90
25963;DHT22;13760;52.588;13.406;2024-03-23T14:06:33;7.70;99.90
25963;DHT22;13760;52.588;13.406;2024-03-23T14:08:58;7.70;99.90
25963;DHT22;13760;52.588;13.406;2024-03-23T14:11:24;7.60;99.90
25963;DHT22;13760;52.588;13.406;2024-03-23T14:13:52;7.50;99.90
25963;DHT22;13760;52.588;13.406;2024-03-23T14:16:18;7.50;99.90
25963;DHT22;13760;52.588;13.406;2024-03-23T14:18:46;7.40;99.90
25963;DHT22;13760;52.588;13.406;2024-03-23T14:21:12;7.40;99.90
25963;DHT22;13760;52.588;13.406;2024-03-23T14:23:38;7.30;99.90
25963;DHT22;13760;52.588;13.406;2024-03-23T14:26:03;7.30;99.90
25963;DHT22;13760;52.588;13.406;2024-03-23T14:28:29;7.30;99.90
25963;DHT22;13760;52.588;13.406;2024-03-23T14:30:56;7.30;99.90
25963;DHT22;13760;52.588;13.406;2024-03-23T14:33:22;7.20;99.90
25963;DHT22;13760;52.588;13.406;2024-03-23T14:35:56;7.20;99.90
25963;DHT22;13760;52.588;13.406;2024-03-23T14:38:22;6.90;99.90
25963;DHT22;13760;52.588;13.406;2024-03-23T14:40:48;6.50;99.90
25963;DHT22;13760;52.588;13.406;2024-03-23T14:43:14;6.20;99.90
25963;DHT22;13760;52.588;13.406;2024-03-23T14:46:14;5.90;99.90
25963;DHT22;13760;52.588;13.406;2024-03-23T14:48:50;5.70;99.90
25963;DHT22;13760;52.588;13.406;2024-03-23T14:51:16;5.60;99.90
25963;DHT22;13760;52.588;13.406;2024-03-23T14:53:45;5.60;99.90
25963;DHT22;13760;52.588;13.406;2024-03-23T14:56:11;5.50;99.90
25963;DHT22;13760;52.588;13.406;2024-03-23T14:58:39;5.50;99.90
25963;DHT22;13760;52.588;13.406;2024-03-23T15:01:06;5.50;99.90
25963;DHT22;13760;52.588;13.406;2024-03-23T15:03:38;5.50;99.90
25963;DHT22;13760;52.588;13.406;2024-03-23T15:06:05;5.60;99.90
25963;DHT22;13760;52.588;13.406;2024-03-23T15:08:30;5.70;99.90
25963;DHT22;13760;52.588;13.406;2024-03-23T15:11:02;5.80;99.90
25963;DHT22;13760;52.588;13.406;2024-03-23T15:13:40;5.90;99.90
25963;DHT22;13760;52.588;13.406;2024-03-23T15:16:06;6.10;99.90
25963;DHT22;13760;52.588;13.406;2024-03-23T15:18:38;6.20;99.90
25963;DHT22;13760;52.588;13.406;2024-03-23T15:21:04;6.20;99.90
25963;DHT22;13760;52.588;13.406;2024-03-23T15:23:35;6.30;99.90
25963;DHT22;13760;52.588;13.406;2024-03-23T15:26:02;6.40;99.90
25963;DHT22;13760;52.588;13.406;2024-03-23T15:28:28;6.40;99.90
25963;DHT22;13760;52.588;13.406;2024-03-23T15:31:04;6.40;99.90
25963;DHT22;13760;52.588;13.406;2024-03-23T15:33:30;6.40;99.90
25963;DHT22;13760;52.588;13.406;2024-03-23T15:35:59;6.40;99.90
25963;DHT22;13760;52.588;13.406;2024-03-23T15:38:47;6.40;99.90
25963;DHT22;13760;52.588;13.406;2024-03-23T15:41:21;6.40;99.90
25963;DHT22;13760;52.588;13.406;2024-03-23T15:43:49;6.40;99.90
25963;DHT22;13760;52.588;13.406;2024-03-23T15:46:14;6.40;99.90
25963;DHT22;13760;52.588;13.406;2024-03-23T15:48:41;6.50;99.90
25963;DHT22;13760;52.588;13.406;2024-03-23T15:51:15;6.50;99.90
25963;DHT22;13760;52.588;13.406;2024-03-23T15:53:44;6.50;99.90
25963;DHT22;13760;52.588;13.406;2024-03-23T15:56:13;6.50;99.90
25963;DHT22;13760;52.588;13.406;2024-03-23T15:58:45;6.50;99.90
25963;DHT22;13760;52.588;13.406;2024-03-23T16:01:22;6.50;99.90
25963;DHT22;13760;52.588;13.406;2024-03-23T16:04:11;6.60;99.90
25963;DHT22;13760;52.588;13.406;2024-03-23T16:06:47;6.60;99.90
25963;DHT22;13760;52.588;13.406;2024-03-23T16:09:19;6.60;99.90
25963;DHT22;13760;52.588;13.406;2024-03-23T16:11:52;6.60;99.90
25963;DHT22;13760;52.588;13.406;2024-03-23T16:14:20;6.70;99.90
25963;DHT22;13760;52.588;13.406;2024-03-23T16:16:52;6.70;99.90
25963;DHT22;13760;52.588;13.406;2024-03-23T16:19:25;6.70;99.90
25963;DHT22;13760;52.588;13.406;2024-03-23T16:22:00;6.70;99.90
25963;DHT22;13760;52.588;13.406;2024-03-23T16:24:33;6.70;99.90
25963;DHT22;13760;52.588;13.406;2024-03-23T16:26:59;6.70;99.90
25963;DHT22;13760;52.588;13.406;2024-03-23T16:29:32;6.60;99.90
25963;DHT22;13760;52.588;13.406;2024-03-23T16:31:57;6.60;99.90
25963;DHT22;13760;52.588;13.406;2024-03-23T16:34:23;6.60;99.90
25963;DHT22;13760;52.588;13.406;2024-03-23T16:36:54;6.60;99.90
25963;DHT22;13760;52.588;13.406;2024-03-23T16:39:22;6.50;99.90